Time;durP1;ratioP1;P1;durP2;ratioP2;P2;SDS_P1;SDS_P2;PMS_P1;PMS_P2;Temp;Humidity;BMP_temperature;BMP_pressure;BME280_temperature;BME280_humidity;BME280_pressure;Samples;Min_cycle;Max_cycle;Signal;HPM_P1;HPM_P2
2023/09/04 00:00:53;;;;;;;0.22;0.13;;;13.30;99.90;;;;;;5111220;27;20118;-69
2023/09/04 00:03:19;;;;;;;0.10;0.08;;;13.30;99.90;;;;;;5112929;27;20058;-69
2023/09/04 00:05:45;;;;;;;0.20;0.00;;;13.20;99.90;;;;;;5112459;27;20547;-69
2023/09/04 00:08:11;;;;;;;0.28;0.10;;;13.20;99.90;;;;;;5114995;27;20035;-69
2023/09/04 00:10:37;;;;;;;0.10;0.05;;;13.10;99.90;;;;;;5131430;27;20518;-69
2023/09/04 00:13:03;;;;;;;0.40;0.10;;;13.20;99.90;;;;;;5113456;27;20049;-69
2023/09/04 00:15:28;;;;;;;0.10;0.00;;;13.10;99.90;;;;;;5112120;27;20046;-69
2023/09/04 00:17:55;;;;;;;0.20;0.03;;;13.10;99.90;;;;;;5114298;27;20432;-69
2023/09/04 00:20:21;;;;;;;0.40;0.10;;;13.00;99.90;;;;;;5130444;27;20498;-69
2023/09/04 00:22:47;;;;;;;0.00;0.00;;;13.00;99.90;;;;;;5107123;27;20035;-69
2023/09/04 00:25:12;;;;;;;0.20;0.10;;;13.00;99.90;;;;;;5131231;27;20043;-69
2023/09/04 00:27:38;;;;;;;0.10;0.10;;;13.00;99.90;;;;;;5112746;27;20027;-69
2023/09/04 00:30:04;;;;;;;0.30;0.10;;;12.90;99.90;;;;;;5112485;27;20114;-69
2023/09/04 00:32:30;;;;;;;0.00;0.00;;;12.90;99.90;;;;;;5130828;27;20535;-69
2023/09/04 00:34:56;;;;;;;0.47;0.10;;;12.90;99.90;;;;;;5113668;27;20191;-69
2023/09/04 00:37:22;;;;;;;0.10;0.10;;;12.90;99.90;;;;;;5112666;27;20493;-70
2023/09/04 00:39:47;;;;;;;0.10;0.05;;;12.80;99.90;;;;;;5113439;27;20124;-69
2023/09/04 00:42:15;;;;;;;0.00;0.00;;;12.80;99.90;;;;;;5113787;27;20043;-69
2023/09/04 00:44:44;;;;;;;0.00;0.00;;;12.80;99.90;;;;;;5114005;27;20088;-69
2023/09/04 00:47:13;;;;;;;0.10;0.05;;;12.80;99.90;;;;;;5111713;27;20374;-69
2023/09/04 00:49:41;;;;;;;0.00;0.00;;;12.70;99.90;;;;;;5110154;27;20039;-69
2023/09/04 00:52:08;;;;;;;0.47;0.10;;;12.70;99.90;;;;;;5109603;27;20075;-69
2023/09/04 00:54:35;;;;;;;0.57;0.20;;;12.70;99.90;;;;;;5091760;27;20039;-69
2023/09/04 00:57:03;;;;;;;0.40;0.00;;;12.70;99.90;;;;;;5130422;27;20035;-68
2023/09/04 00:59:29;;;;;;;0.10;0.00;;;12.70;99.90;;;;;;5131482;27;20027;-69
2023/09/04 01:01:58;;;;;;;0.20;0.03;;;12.70;99.90;;;;;;5127659;27;20481;-68
2023/09/04 01:04:24;;;;;;;0.20;0.10;;;12.60;99.90;;;;;;5108639;27;20047;-68
2023/09/04 01:06:50;;;;;;;0.00;0.00;;;12.60;99.90;;;;;;5106466;27;20095;-67
2023/09/04 01:09:17;;;;;;;0.00;0.00;;;12.60;99.90;;;;;;5108961;27;20078;-68
2023/09/04 01:11:54;;;;;;;0.28;0.00;;;12.60;99.90;;;;;;5121825;27;20043;-68
2023/09/04 01:14:20;;;;;;;0.35;0.10;;;12.60;99.90;;;;;;5129775;27;20114;-67
2023/09/04 01:16:47;;;;;;;0.00;0.00;;;12.50;99.90;;;;;;5092003;27;20166;-68
2023/09/04 01:19:13;;;;;;;0.52;0.00;;;12.50;99.90;;;;;;5105395;27;20057;-68
2023/09/04 01:21:38;;;;;;;0.00;0.00;;;12.50;99.90;;;;;;5111451;27;20391;-67
2023/09/04 01:24:04;;;;;;;0.00;0.00;;;12.40;99.90;;;;;;5127883;27;20027;-68
2023/09/04 01:26:30;;;;;;;0.20;0.10;;;12.40;99.90;;;;;;5110554;27;20658;-68
2023/09/04 01:29:33;;;;;;;0.25;0.00;;;12.40;99.90;;;;;;5110303;27;20127;-68
2023/09/04 01:32:02;;;;;;;0.45;0.10;;;12.30;99.90;;;;;;5091795;27;20107;-67
2023/09/04 01:34:32;;;;;;;0.08;0.00;;;12.30;99.90;;;;;;5127618;27;20398;-68
2023/09/04 01:37:00;;;;;;;0.38;0.00;;;12.30;99.90;;;;;;5108782;27;20079;-68
2023/09/04 01:39:26;;;;;;;0.10;0.03;;;12.30;99.90;;;;;;5111201;27;20079;-68
2023/09/04 01:41:52;;;;;;;0.00;0.00;;;12.30;99.90;;;;;;5110433;27;20483;-67
2023/09/04 01:44:19;;;;;;;0.45;0.10;;;12.20;99.90;;;;;;5109776;27;20092;-68
2023/09/04 01:46:45;;;;;;;0.00;0.00;;;12.20;99.90;;;;;;5088484;27;20138;-68
2023/09/04 01:49:11;;;;;;;0.45;0.20;;;12.20;99.90;;;;;;5111105;27;20440;-68
2023/09/04 01:51:36;;;;;;;0.10;0.00;;;12.20;99.90;;;;;;5107788;27;20046;-68
2023/09/04 01:54:02;;;;;;;0.38;0.03;;;12.10;99.90;;;;;;5110944;27;20107;-68
2023/09/04 01:56:28;;;;;;;0.10;0.00;;;12.10;99.90;;;;;;5089024;27;20046;-68
2023/09/04 01:58:53;;;;;;;0.25;0.00;;;12.10;99.90;;;;;;5102630;27;20086;-68
2023/09/04 02:01:19;;;;;;;0.03;0.00;;;12.10;99.90;;;;;;5110444;27;20047;-67
2023/09/04 02:03:54;;;;;;;0.20;0.10;;;12.00;99.90;;;;;;5125512;27;20062;-67
2023/09/04 02:06:20;;;;;;;0.22;0.10;;;12.00;99.90;;;;;;5126662;27;20119;-68
2023/09/04 02:08:47;;;;;;;0.75;0.10;;;12.00;99.90;;;;;;5107640;27;20050;-68
2023/09/04 02:11:12;;;;;;;0.08;0.08;;;12.00;99.90;;;;;;5123939;27;20798;-68
2023/09/04 02:13:38;;;;;;;0.25;0.08;;;12.00;99.90;;;;;;5128295;27;20046;-68
2023/09/04 02:16:04;;;;;;;0.13;0.00;;;11.90;99.90;;;;;;5128303;27;20502;-67
2023/09/04 02:18:31;;;;;;;0.00;0.00;;;11.90;99.90;;;;;;5092452;27;20216;-68
2023/09/04 02:20:59;;;;;;;0.22;0.10;;;11.90;99.90;;;;;;5110039;27;20035;-68
2023/09/04 02:23:25;;;;;;;0.22;0.17;;;11.90;99.90;;;;;;5111757;27;20046;-68
2023/09/04 02:25:51;;;;;;;0.20;0.10;;;11.90;99.90;;;;;;5109940;27;20254;-68
2023/09/04 02:28:17;;;;;;;0.00;0.00;;;11.90;99.90;;;;;;5093909;27;20031;-68
2023/09/04 02:30:43;;;;;;;0.32;0.22;;;11.80;99.90;;;;;;5107812;27;20038;-67
2023/09/04 02:33:08;;;;;;;0.05;0.00;;;11.80;99.90;;;;;;5108871;27;20047;-68
2023/09/04 02:35:34;;;;;;;0.00;0.00;;;11.80;99.90;;;;;;5107454;27;20047;-68
2023/09/04 02:38:00;;;;;;;0.45;0.25;;;11.80;99.90;;;;;;5126217;27;20670;-68
2023/09/04 02:40:26;;;;;;;0.10;0.08;;;11.70;99.90;;;;;;5110367;28;20043;-69
2023/09/04 02:42:52;;;;;;;0.10;0.00;;;11.70;99.90;;;;;;5110865;27;20251;-69
2023/09/04 02:45:18;;;;;;;0.25;0.00;;;11.70;99.90;;;;;;5110764;27;20551;-69
2023/09/04 02:47:43;;;;;;;0.15;0.10;;;11.70;99.90;;;;;;5109371;28;20082;-69
2023/09/04 02:50:10;;;;;;;0.22;0.03;;;11.60;99.90;;;;;;5128068;28;20669;-69
2023/09/04 02:52:36;;;;;;;0.10;0.00;;;11.60;99.90;;;;;;5126806;28;20043;-68
2023/09/04 02:55:04;;;;;;;0.10;0.00;;;11.60;99.90;;;;;;5110355;28;20078;-68
2023/09/04 02:57:31;;;;;;;0.40;0.20;;;11.60;99.90;;;;;;5109289;28;20459;-69
2023/09/04 03:00:00;;;;;;;0.00;0.00;;;11.50;99.90;;;;;;5126712;28;20035;-69
2023/09/04 03:02:26;;;;;;;0.00;0.00;;;11.50;99.90;;;;;;5111190;27;20097;-69
2023/09/04 03:04:53;;;;;;;0.00;0.00;;;11.50;99.90;;;;;;5131478;27;20145;-69
2023/09/04 03:07:19;;;;;;;0.00;0.00;;;11.50;99.90;;;;;;5129417;27;20099;-69
2023/09/04 03:09:45;;;;;;;0.35;0.20;;;11.50;99.90;;;;;;5113820;27;20058;-69
2023/09/04 03:12:11;;;;;;;0.75;0.13;;;11.50;99.90;;;;;;5113193;27;20043;-69
2023/09/04 03:14:36;;;;;;;0.80;0.28;;;11.50;99.90;;;;;;5111930;27;20550;-69
2023/09/04 03:17:04;;;;;;;0.10;0.10;;;11.50;99.90;;;;;;5112125;27;20035;-69
2023/09/04 03:19:30;;;;;;;0.08;0.08;;;11.50;99.90;;;;;;5112338;27;20053;-69
2023/09/04 03:21:56;;;;;;;0.68;0.15;;;11.40;99.90;;;;;;5113093;27;20474;-69
2023/09/04 03:24:23;;;;;;;0.00;0.00;;;11.40;99.90;;;;;;5111895;27;20041;-69
2023/09/04 03:26:50;;;;;;;0.10;0.00;;;11.40;99.90;;;;;;5132789;27;20457;-69
2023/09/04 03:29:15;;;;;;;0.05;0.05;;;11.40;99.90;;;;;;5114470;27;20035;-68
2023/09/04 03:31:41;;;;;;;0.10;0.10;;;11.40;99.90;;;;;;5108482;27;20051;-69
2023/09/04 03:34:07;;;;;;;0.30;0.10;;;11.40;99.90;;;;;;5110770;27;20499;-69
2023/09/04 03:36:33;;;;;;;0.20;0.20;;;11.30;99.90;;;;;;5109866;27;20047;-69
2023/09/04 03:38:59;;;;;;;0.00;0.00;;;11.30;99.90;;;;;;5113373;27;20054;-68
2023/09/04 03:41:26;;;;;;;0.20;0.00;;;11.30;99.90;;;;;;5110569;27;20039;-69
2023/09/04 03:43:51;;;;;;;0.52;0.20;;;11.30;99.90;;;;;;5093920;27;20122;-69
2023/09/04 03:46:17;;;;;;;0.10;0.00;;;11.30;99.90;;;;;;5110349;27;20187;-68
2023/09/04 03:48:43;;;;;;;0.10;0.08;;;11.30;99.90;;;;;;5113553;27;20043;-69
2023/09/04 03:51:08;;;;;;;0.32;0.10;;;11.20;99.90;;;;;;5112570;27;20031;-69
2023/09/04 03:53:35;;;;;;;0.28;0.10;;;11.20;99.90;;;;;;5129634;27;20092;-69
2023/09/04 03:56:08;;;;;;;0.38;0.10;;;11.20;99.90;;;;;;5131663;27;20035;-69
2023/09/04 03:58:33;;;;;;;0.85;0.38;;;11.20;99.90;;;;;;5110071;27;20387;-68
2023/09/04 04:01:00;;;;;;;0.10;0.00;;;11.20;99.90;;;;;;5131787;27;20038;-69
2023/09/04 04:03:25;;;;;;;0.35;0.17;;;11.20;99.90;;;;;;5113164;27;20432;-69
2023/09/04 04:05:51;;;;;;;1.02;0.17;;;11.20;99.90;;;;;;5108908;27;20099;-69
2023/09/04 04:08:19;;;;;;;0.00;0.00;;;11.10;99.90;;;;;;5094087;27;20681;-69
2023/09/04 04:10:45;;;;;;;0.38;0.13;;;11.10;99.90;;;;;;5114815;27;20023;-69
2023/09/04 04:13:11;;;;;;;0.22;0.10;;;11.10;99.90;;;;;;5111192;27;20558;-69
2023/09/04 04:15:38;;;;;;;1.90;0.22;;;11.10;99.90;;;;;;5131302;27;20509;-69
2023/09/04 04:18:05;;;;;;;0.13;0.03;;;11.10;99.90;;;;;;5113913;27;20114;-69
2023/09/04 04:20:31;;;;;;;0.20;0.00;;;11.00;99.90;;;;;;5112770;27;20497;-69
2023/09/04 04:22:57;;;;;;;0.52;0.22;;;11.00;99.90;;;;;;5112102;27;20031;-69
2023/09/04 04:25:23;;;;;;;0.90;0.10;;;11.00;99.90;;;;;;5131804;27;20051;-69
2023/09/04 04:27:49;;;;;;;0.70;0.20;;;11.00;99.90;;;;;;5111145;27;20039;-69
2023/09/04 04:30:14;;;;;;;1.00;0.10;;;10.90;99.90;;;;;;5111233;27;20436;-69
2023/09/04 04:32:40;;;;;;;0.38;0.20;;;11.00;99.90;;;;;;5132424;27;20047;-69
2023/09/04 04:35:07;;;;;;;0.43;0.30;;;10.90;99.90;;;;;;5109583;27;20050;-69
2023/09/04 04:37:33;;;;;;;0.22;0.15;;;10.90;99.90;;;;;;5131670;27;20491;-68
2023/09/04 04:40:00;;;;;;;0.85;0.30;;;10.80;99.90;;;;;;5114774;27;20039;-68
2023/09/04 04:42:26;;;;;;;0.68;0.00;;;10.80;99.90;;;;;;5094820;27;20035;-68
2023/09/04 04:44:54;;;;;;;0.82;0.20;;;10.90;99.90;;;;;;5113243;27;20069;-68
2023/09/04 04:47:20;;;;;;;0.20;0.10;;;10.80;99.90;;;;;;5111044;27;20450;-68
2023/09/04 04:49:46;;;;;;;1.65;0.00;;;10.80;99.90;;;;;;5128581;27;20035;-68
2023/09/04 04:52:11;;;;;;;0.15;0.00;;;10.90;99.90;;;;;;5128495;27;20027;-68
2023/09/04 04:54:37;;;;;;;1.20;0.20;;;10.80;99.90;;;;;;5110653;27;20047;-68
2023/09/04 04:57:03;;;;;;;0.55;0.10;;;10.80;99.90;;;;;;5112459;27;20050;-69
2023/09/04 04:59:29;;;;;;;0.95;0.10;;;10.80;99.90;;;;;;5128939;27;20680;-68
2023/09/04 05:01:56;;;;;;;0.40;0.10;;;10.80;99.90;;;;;;5109451;27;20058;-68
2023/09/04 05:04:22;;;;;;;0.32;0.17;;;10.80;99.90;;;;;;5130635;27;20180;-69
2023/09/04 05:06:48;;;;;;;0.28;0.20;;;10.80;99.90;;;;;;5111952;27;20038;-68
2023/09/04 05:09:14;;;;;;;0.10;0.00;;;10.80;99.90;;;;;;5109439;27;20417;-69
2023/09/04 05:11:40;;;;;;;0.15;0.10;;;10.80;99.90;;;;;;5125357;27;20058;-69
2023/09/04 05:14:06;;;;;;;0.30;0.10;;;10.80;99.90;;;;;;5107011;27;20036;-69
2023/09/04 05:16:31;;;;;;;0.45;0.20;;;10.80;99.90;;;;;;5092576;27;20510;-69
2023/09/04 05:18:58;;;;;;;0.20;0.10;;;10.90;99.90;;;;;;5107080;27;20047;-69
2023/09/04 05:21:23;;;;;;;0.38;0.13;;;10.90;99.90;;;;;;5105767;27;20179;-68
2023/09/04 05:23:49;;;;;;;0.25;0.15;;;10.90;99.90;;;;;;5109594;27;20571;-68
2023/09/04 05:26:15;;;;;;;0.55;0.20;;;11.00;99.90;;;;;;5111493;27;20140;-68
2023/09/04 05:28:41;;;;;;;0.65;0.35;;;11.00;99.90;;;;;;5108974;27;20042;-68
2023/09/04 05:31:07;;;;;;;0.50;0.20;;;11.10;99.90;;;;;;5111178;27;20039;-68
2023/09/04 05:33:32;;;;;;;1.67;0.60;;;11.20;99.90;;;;;;5128260;27;20035;-68
2023/09/04 05:35:58;;;;;;;0.60;0.30;;;11.20;99.90;;;;;;5092720;27;20364;-68
2023/09/04 05:38:24;;;;;;;0.82;0.28;;;11.30;99.90;;;;;;5106011;27;20501;-68
2023/09/04 05:40:54;;;;;;;0.57;0.40;;;11.40;99.90;;;;;;5111167;27;20043;-69
2023/09/04 05:43:20;;;;;;;0.50;0.20;;;11.50;99.90;;;;;;5106221;27;20487;-69
2023/09/04 05:45:46;;;;;;;0.80;0.20;;;11.60;99.90;;;;;;5094179;27;20039;-69
2023/09/04 05:48:12;;;;;;;0.82;0.38;;;11.70;99.90;;;;;;5128728;27;20529;-69
2023/09/04 05:50:38;;;;;;;1.23;0.57;;;11.90;99.90;;;;;;5108368;27;20039;-69
2023/09/04 05:53:03;;;;;;;1.45;0.60;;;12.00;99.90;;;;;;5129393;27;20478;-69
2023/09/04 05:55:29;;;;;;;0.57;0.30;;;12.10;99.90;;;;;;5110664;27;20050;-69
2023/09/04 05:57:55;;;;;;;0.68;0.30;;;12.20;99.90;;;;;;5091982;27;20043;-69
2023/09/04 06:00:21;;;;;;;1.15;0.40;;;12.30;99.90;;;;;;5108121;27;20050;-69
2023/09/04 06:02:47;;;;;;;0.90;0.30;;;12.50;99.90;;;;;;5111096;27;20117;-68
2023/09/04 06:05:13;;;;;;;1.08;0.30;;;12.50;99.90;;;;;;5108411;27;20138;-68
2023/09/04 06:07:39;;;;;;;1.05;0.38;;;12.70;99.90;;;;;;5108537;27;20035;-69
2023/09/04 06:10:05;;;;;;;0.70;0.25;;;12.80;99.90;;;;;;5107086;27;20049;-68
2023/09/04 06:12:31;;;;;;;1.83;0.77;;;12.80;99.90;;;;;;5110177;27;20536;-68
2023/09/04 06:14:57;;;;;;;1.15;0.47;;;12.90;99.90;;;;;;5126958;27;20129;-69
2023/09/04 06:17:22;;;;;;;1.33;0.68;;;13.00;99.90;;;;;;5109560;27;20035;-69
2023/09/04 06:19:48;;;;;;;0.90;0.50;;;13.10;99.90;;;;;;5111403;27;20486;-69
2023/09/04 06:22:14;;;;;;;2.25;0.50;;;13.10;99.90;;;;;;5109998;27;20442;-69
2023/09/04 06:24:39;;;;;;;1.00;0.45;;;13.20;99.90;;;;;;5130442;27;20063;-69
2023/09/04 06:27:05;;;;;;;1.70;1.02;;;13.30;99.90;;;;;;5130501;27;20454;-69
2023/09/04 06:29:31;;;;;;;0.40;0.17;;;13.40;99.90;;;;;;5130741;27;20027;-69
2023/09/04 06:31:57;;;;;;;0.73;0.40;;;13.40;99.90;;;;;;5110020;27;20047;-69
2023/09/04 06:34:22;;;;;;;1.52;0.45;;;13.50;99.90;;;;;;5128156;27;20055;-69
2023/09/04 06:36:48;;;;;;;2.33;0.20;;;13.50;99.90;;;;;;5108444;28;20767;-69
2023/09/04 06:39:14;;;;;;;1.10;0.40;;;13.60;99.90;;;;;;5130139;27;20122;-69
2023/09/04 06:41:40;;;;;;;5.15;0.80;;;13.70;99.90;;;;;;5108785;28;20127;-68
2023/09/04 06:44:06;;;;;;;0.57;0.32;;;13.80;99.90;;;;;;5129678;28;20447;-69
2023/09/04 06:46:32;;;;;;;0.30;0.30;;;13.90;99.90;;;;;;5129570;27;20070;-69
2023/09/04 06:48:58;;;;;;;1.05;0.50;;;14.00;99.90;;;;;;5108691;28;20039;-69
2023/09/04 06:51:24;;;;;;;1.17;0.55;;;14.10;99.90;;;;;;5111318;28;20035;-70
2023/09/04 06:53:49;;;;;;;2.70;0.43;;;14.10;99.90;;;;;;5108237;28;20483;-70
2023/09/04 06:56:15;;;;;;;1.45;0.45;;;14.30;99.90;;;;;;5110398;28;20038;-70
2023/09/04 06:58:41;;;;;;;1.30;0.65;;;14.40;99.90;;;;;;5128858;28;20035;-70
2023/09/04 07:01:06;;;;;;;0.73;0.38;;;14.60;99.90;;;;;;5104319;28;20402;-70
2023/09/04 07:03:33;;;;;;;1.40;0.30;;;14.80;99.90;;;;;;5091664;28;20458;-70
2023/09/04 07:05:59;;;;;;;0.88;0.52;;;14.90;99.90;;;;;;5107184;28;20126;-70
2023/09/04 07:08:25;;;;;;;1.40;0.50;;;15.10;99.90;;;;;;5109712;28;20188;-70
2023/09/04 07:10:52;;;;;;;1.80;0.55;;;15.30;99.90;;;;;;5104436;27;20423;-70
2023/09/04 07:13:18;;;;;;;1.30;0.63;;;15.50;99.90;;;;;;5111984;28;20059;-70
2023/09/04 07:15:44;;;;;;;1.30;0.40;;;15.60;99.90;;;;;;5110144;28;20596;-70
2023/09/04 07:18:10;;;;;;;0.82;0.40;;;15.80;99.90;;;;;;5108673;28;20039;-70
2023/09/04 07:20:36;;;;;;;0.80;0.22;;;15.80;99.90;;;;;;5107196;28;20129;-70
2023/09/04 07:23:03;;;;;;;0.47;0.30;;;16.00;99.90;;;;;;5106797;28;20180;-70
2023/09/04 07:25:32;;;;;;;0.40;0.20;;;16.20;99.90;;;;;;5125863;28;20043;-70
2023/09/04 07:27:58;;;;;;;0.88;0.50;;;16.40;99.90;;;;;;5108655;28;20035;-70
2023/09/04 07:30:24;;;;;;;0.85;0.40;;;16.60;99.90;;;;;;5103390;28;20050;-71
2023/09/04 07:32:50;;;;;;;1.52;0.52;;;16.70;99.90;;;;;;5106961;28;20047;-70
2023/09/04 07:35:15;;;;;;;0.65;0.40;;;16.90;99.90;;;;;;5088805;28;20463;-70
2023/09/04 07:37:41;;;;;;;0.45;0.30;;;17.10;99.90;;;;;;5105445;28;20096;-70
2023/09/04 07:40:08;;;;;;;1.08;0.30;;;17.20;99.90;;;;;;5088466;28;20046;-70
2023/09/04 07:42:34;;;;;;;0.20;0.15;;;17.40;99.90;;;;;;5106688;28;20139;-70
2023/09/04 07:45:00;;;;;;;0.50;0.40;;;17.50;99.90;;;;;;5108050;28;20067;-68
2023/09/04 07:47:25;;;;;;;0.60;0.30;;;17.80;99.90;;;;;;5107552;28;20479;-68
2023/09/04 07:49:52;;;;;;;0.50;0.30;;;17.90;99.90;;;;;;5109229;27;20038;-68
2023/09/04 07:52:18;;;;;;;0.60;0.40;;;18.10;99.90;;;;;;5111457;27;20157;-68
2023/09/04 07:54:45;;;;;;;0.98;0.63;;;18.30;99.90;;;;;;5128506;27;20040;-69
2023/09/04 07:57:11;;;;;;;0.55;0.30;;;18.40;99.90;;;;;;5108971;27;20039;-69
2023/09/04 07:59:37;;;;;;;3.33;0.43;;;18.60;99.90;;;;;;5108601;27;20958;-69
2023/09/04 08:02:03;;;;;;;0.55;0.17;;;18.90;99.90;;;;;;5124979;27;20131;-69
2023/09/04 08:04:29;;;;;;;0.55;0.30;;;19.10;99.90;;;;;;5109387;27;20127;-69
2023/09/04 08:06:56;;;;;;;0.70;0.20;;;19.30;99.90;;;;;;5112868;27;20073;-69
2023/09/04 08:09:22;;;;;;;0.63;0.38;;;20.00;99.90;;;;;;5110997;27;20054;-69
2023/09/04 08:11:51;;;;;;;0.38;0.20;;;20.80;99.90;;;;;;5112706;27;20035;-69
2023/09/04 08:14:17;;;;;;;1.30;0.20;;;21.70;99.90;;;;;;5112894;27;20042;-69
2023/09/04 08:16:42;;;;;;;0.70;0.40;;;22.50;99.90;;;;;;5130292;27;20054;-69
2023/09/04 08:19:08;;;;;;;0.45;0.30;;;22.90;99.90;;;;;;5110132;27;20153;-70
2023/09/04 08:21:34;;;;;;;0.52;0.35;;;23.30;99.90;;;;;;5129873;27;20529;-69
2023/09/04 08:23:59;;;;;;;0.15;0.10;;;23.80;99.90;;;;;;5110859;27;20199;-69
2023/09/04 08:26:25;;;;;;;0.80;0.52;;;24.30;99.90;;;;;;5106338;27;20229;-69
2023/09/04 08:28:51;;;;;;;0.40;0.20;;;24.70;99.90;;;;;;5131648;27;20046;-70
2023/09/04 08:31:17;;;;;;;0.30;0.20;;;25.00;99.90;;;;;;5110936;27;20035;-70
2023/09/04 08:33:42;;;;;;;0.80;0.10;;;25.40;99.90;;;;;;5091368;27;20433;-70
2023/09/04 08:36:08;;;;;;;0.38;0.15;;;25.80;99.90;;;;;;5130065;27;20051;-70
2023/09/04 08:38:34;;;;;;;1.02;0.30;;;26.10;99.90;;;;;;5129879;27;20513;-70
2023/09/04 08:41:05;;;;;;;0.03;0.03;;;26.50;99.90;;;;;;5127171;27;20031;-70
2023/09/04 08:43:32;;;;;;;1.00;0.10;;;26.80;99.90;;;;;;5109707;27;20059;-70
2023/09/04 08:46:00;;;;;;;0.38;0.15;;;27.00;99.90;;;;;;5128773;27;20326;-69
2023/09/04 08:48:29;;;;;;;0.30;0.30;;;27.10;99.90;;;;;;5130815;27;20043;-70
2023/09/04 08:50:56;;;;;;;0.30;0.17;;;27.10;99.90;;;;;;5110309;27;20027;-70
2023/09/04 08:53:22;;;;;;;0.90;0.32;;;27.20;99.90;;;;;;5112001;27;20546;-70
2023/09/04 08:55:49;;;;;;;0.40;0.10;;;27.50;99.90;;;;;;5105474;27;20059;-70
2023/09/04 08:58:16;;;;;;;0.10;0.00;;;27.60;99.90;;;;;;5130421;27;20493;-70
2023/09/04 09:00:43;;;;;;;0.20;0.10;;;27.30;99.90;;;;;;5110079;27;20119;-70
2023/09/04 09:03:11;;;;;;;0.30;0.10;;;27.10;99.90;;;;;;5129501;27;20050;-69
2023/09/04 09:05:37;;;;;;;0.20;0.10;;;27.40;99.90;;;;;;5128700;27;20126;-69
2023/09/04 09:08:04;;;;;;;0.20;0.10;;;27.60;99.30;;;;;;5127933;27;20039;-69
2023/09/04 09:10:30;;;;;;;0.20;0.13;;;28.10;95.00;;;;;;5109111;27;20039;-70
2023/09/04 09:12:56;;;;;;;1.00;0.17;;;27.80;94.30;;;;;;5130333;27;20043;-70
2023/09/04 09:15:22;;;;;;;1.25;0.30;;;27.80;98.20;;;;;;5111004;27;20122;-69
2023/09/04 09:17:57;;;;;;;0.10;0.00;;;27.80;99.90;;;;;;5111361;27;20118;-70
2023/09/04 09:20:52;;;;;;;0.30;0.10;;;27.60;95.30;;;;;;5125086;27;20065;-69
2023/09/04 09:23:17;;;;;;;0.40;0.22;;;27.80;92.30;;;;;;5106091;27;20122;-69
2023/09/04 09:25:54;;;;;;;0.32;0.20;;;27.80;95.20;;;;;;5094176;27;20134;-68
2023/09/04 09:28:20;;;;;;;0.32;0.00;;;27.70;94.60;;;;;;5129766;27;20202;-69
2023/09/04 09:30:47;;;;;;;0.52;0.10;;;27.50;86.00;;;;;;5129956;27;20312;-69
2023/09/04 09:33:12;;;;;;;0.00;0.00;;;27.50;90.70;;;;;;5129729;27;20544;-68
2023/09/04 09:35:40;;;;;;;0.20;0.00;;;27.40;93.50;;;;;;5124657;27;20055;-68
2023/09/04 09:38:06;;;;;;;0.08;0.00;;;27.50;90.10;;;;;;5129796;27;20479;-68
2023/09/04 09:40:31;;;;;;;0.20;0.17;;;27.60;92.40;;;;;;5111727;27;20028;-68
2023/09/04 09:43:00;;;;;;;0.10;0.00;;;27.80;91.60;;;;;;5129277;27;20118;-68
2023/09/04 09:45:33;;;;;;;0.03;0.00;;;27.80;90.70;;;;;;5105646;27;20043;-68
2023/09/04 09:48:04;;;;;;;0.00;0.00;;;27.80;91.60;;;;;;5128421;27;20035;-68
2023/09/04 09:50:30;;;;;;;0.03;0.00;;;27.90;88.10;;;;;;5126008;27;20070;-68
2023/09/04 09:53:02;;;;;;;0.00;0.00;;;27.90;86.50;;;;;;5126939;27;20079;-68
2023/09/04 09:55:30;;;;;;;0.43;0.10;;;27.90;92.20;;;;;;5107431;27;20039;-68
2023/09/04 09:58:01;;;;;;;0.15;0.10;;;27.90;90.10;;;;;;5126865;27;20442;-68
2023/09/04 10:00:27;;;;;;;0.00;0.00;;;27.90;80.20;;;;;;5109822;27;20055;-68
2023/09/04 10:02:57;;;;;;;0.00;0.00;;;28.10;90.20;;;;;;5110907;27;20043;-68
2023/09/04 10:05:25;;;;;;;0.90;0.20;;;28.20;88.70;;;;;;5127039;27;20038;-68
2023/09/04 10:07:57;;;;;;;0.43;0.08;;;28.30;90.50;;;;;;5110272;27;20042;-68
2023/09/04 10:10:24;;;;;;;0.52;0.10;;;28.20;79.80;;;;;;5109192;27;20043;-68
2023/09/04 10:12:54;;;;;;;0.17;0.10;;;28.30;87.20;;;;;;5126692;27;20122;-68
2023/09/04 10:15:25;;;;;;;0.60;0.10;;;28.30;79.60;;;;;;5127686;27;20059;-68
2023/09/04 10:18:05;;;;;;;0.10;0.10;;;28.30;78.60;;;;;;5109800;27;20722;-68
2023/09/04 10:20:32;;;;;;;0.20;0.10;;;28.20;80.10;;;;;;5110128;27;20074;-68
2023/09/04 10:23:11;;;;;;;0.20;0.10;;;28.10;78.40;;;;;;5126958;27;20047;-68
2023/09/04 10:26:08;;;;;;;0.00;0.00;;;28.20;83.10;;;;;;5108169;27;20042;-68
2023/09/04 10:28:40;;;;;;;0.20;0.10;;;28.30;75.20;;;;;;5127516;27;20454;-69
2023/09/04 10:31:06;;;;;;;0.10;0.10;;;28.30;79.90;;;;;;5108459;27;20035;-68
2023/09/04 10:33:35;;;;;;;0.10;0.00;;;28.20;82.20;;;;;;5104175;27;20091;-69
2023/09/04 10:36:01;;;;;;;0.30;0.10;;;28.30;80.00;;;;;;5124616;27;20046;-69
2023/09/04 10:38:27;;;;;;;0.10;0.00;;;28.20;75.20;;;;;;5106807;28;20047;-68
2023/09/04 10:40:54;;;;;;;0.30;0.08;;;28.20;80.60;;;;;;5127607;27;20039;-68
2023/09/04 10:43:19;;;;;;;0.17;0.08;;;28.50;79.00;;;;;;5108192;27;20043;-68
2023/09/04 10:46:08;;;;;;;1.35;0.00;;;28.70;81.90;;;;;;5127083;27;20400;-69
2023/09/04 10:48:43;;;;;;;0.55;0.15;;;28.80;72.00;;;;;;5124543;27;20046;-69
2023/09/04 10:51:25;;;;;;;0.20;0.10;;;28.80;73.90;;;;;;5125315;28;20039;-69
2023/09/04 10:53:51;;;;;;;0.40;0.13;;;28.70;77.40;;;;;;5107082;27;20276;-69
2023/09/04 10:56:16;;;;;;;0.05;0.00;;;28.90;77.00;;;;;;5108183;28;20047;-69
2023/09/04 10:59:05;;;;;;;0.32;0.00;;;29.00;74.40;;;;;;5127007;28;20035;-69
2023/09/04 11:01:32;;;;;;;0.10;0.00;;;28.80;71.10;;;;;;5108852;28;20050;-69
2023/09/04 11:04:01;;;;;;;0.32;0.10;;;28.60;69.30;;;;;;5125700;28;20441;-69
2023/09/04 11:06:26;;;;;;;0.32;0.10;;;28.30;74.00;;;;;;5106025;28;20573;-69
2023/09/04 11:08:52;;;;;;;0.08;0.05;;;28.20;76.00;;;;;;5128240;28;20118;-69
2023/09/04 11:11:27;;;;;;;0.20;0.20;;;28.20;69.70;;;;;;5128830;28;20052;-69
2023/09/04 11:14:01;;;;;;;0.10;0.10;;;28.00;73.80;;;;;;5128639;28;20340;-68
2023/09/04 11:16:31;;;;;;;0.20;0.00;;;27.80;74.10;;;;;;5127429;28;20047;-68
2023/09/04 11:19:03;;;;;;;0.15;0.10;;;27.70;74.50;;;;;;5127936;28;20027;-69
2023/09/04 11:21:36;;;;;;;1.40;0.10;;;27.70;72.60;;;;;;5106905;28;20513;-69
2023/09/04 11:24:03;;;;;;;;;;;27.90;72.20;;;;;;5129707;27;20385;-68
2023/09/04 11:26:29;;;;;;;0.08;0.00;;;28.10;70.20;;;;;;5131119;27;19919;-68
2023/09/04 11:29:03;;;;;;;0.00;0.00;;;28.30;71.40;;;;;;5129572;27;20031;-69
2023/09/04 11:31:30;;;;;;;0.38;0.10;;;28.70;74.40;;;;;;5113002;27;20039;-69
2023/09/04 11:33:57;;;;;;;0.00;0.00;;;29.00;73.30;;;;;;5132931;27;20027;-69
2023/09/04 11:36:23;;;;;;;0.00;0.00;;;29.40;72.80;;;;;;5131785;27;20119;-68
2023/09/04 11:39:15;;;;;;;0.00;0.00;;;29.60;69.50;;;;;;5129156;27;20042;-68
2023/09/04 11:41:41;;;;;;;0.20;0.00;;;29.80;67.20;;;;;;5122863;27;20047;-69
2023/09/04 11:44:07;;;;;;;0.45;0.10;;;29.90;67.70;;;;;;5114572;27;20151;-69
2023/09/04 11:46:34;;;;;;;0.30;0.10;;;30.00;69.80;;;;;;5130916;27;20399;-68
2023/09/04 11:49:04;;;;;;;0.32;0.20;;;30.10;61.00;;;;;;5128469;27;20035;-68
2023/09/04 11:51:32;;;;;;;0.00;0.00;;;30.10;66.40;;;;;;5112364;27;20042;-68
2023/09/04 11:53:57;;;;;;;0.00;0.00;;;30.40;67.20;;;;;;5132044;27;20042;-68
2023/09/04 11:56:23;;;;;;;0.10;0.00;;;30.60;64.90;;;;;;5131255;27;20031;-68
2023/09/04 11:58:49;;;;;;;0.10;0.10;;;30.80;65.50;;;;;;5113939;27;20057;-68
2023/09/04 12:01:15;;;;;;;0.00;0.00;;;30.90;64.00;;;;;;5112455;27;20092;-68
2023/09/04 12:03:41;;;;;;;0.17;0.03;;;31.10;62.90;;;;;;5131507;27;20045;-68
2023/09/04 12:06:09;;;;;;;0.30;0.05;;;31.00;60.80;;;;;;5130820;27;20115;-68
2023/09/04 12:08:35;;;;;;;0.00;0.00;;;31.10;62.90;;;;;;5112277;27;20036;-68
2023/09/04 12:11:01;;;;;;;0.35;0.00;;;31.00;59.60;;;;;;5111476;27;20372;-68
2023/09/04 12:13:27;;;;;;;0.05;0.00;;;31.10;62.10;;;;;;5113648;27;20053;-68
2023/09/04 12:16:05;;;;;;;0.20;0.00;;;31.30;62.10;;;;;;5131322;27;20047;-68
2023/09/04 12:18:37;;;;;;;0.10;0.00;;;31.30;58.10;;;;;;5128152;27;20043;-68
2023/09/04 12:21:08;;;;;;;0.10;0.00;;;31.40;60.00;;;;;;5130273;27;20550;-68
2023/09/04 12:23:43;;;;;;;0.50;0.10;;;31.40;56.40;;;;;;5110689;27;20066;-67
2023/09/04 12:26:09;;;;;;;0.00;0.00;;;31.30;56.10;;;;;;5129236;27;20501;-67
2023/09/04 12:28:36;;;;;;;0.05;0.00;;;31.10;56.20;;;;;;5129357;27;20041;-67
2023/09/04 12:31:02;;;;;;;0.10;0.08;;;31.00;53.60;;;;;;5131453;27;20484;-67
2023/09/04 12:33:28;;;;;;;0.03;0.03;;;30.80;56.30;;;;;;5130772;27;20045;-67
2023/09/04 12:35:58;;;;;;;0.10;0.00;;;30.60;55.80;;;;;;5108086;27;20051;-67
2023/09/04 12:38:24;;;;;;;0.08;0.03;;;30.60;57.80;;;;;;5128889;27;20039;-68
2023/09/04 12:40:50;;;;;;;0.17;0.00;;;31.00;58.50;;;;;;5131864;27;20140;-67
2023/09/04 12:43:15;;;;;;;0.00;0.00;;;31.40;54.10;;;;;;5110680;27;20043;-67
2023/09/04 12:45:42;;;;;;;0.08;0.03;;;31.20;52.90;;;;;;5124392;27;20593;-68
2023/09/04 12:48:15;;;;;;;0.10;0.00;;;31.10;53.70;;;;;;5107828;27;20050;-67